sensor_id;sensor_type;location;lat;lon;timestamp;P1;durP1;ratioP1;P2;durP2;ratioP2
9294;SDS011;4686;44.496;11.324;2022-09-09T00:02:26;7.90;;;3.77;;
9294;SDS011;4686;44.496;11.324;2022-09-09T00:04:58;6.43;;;3.43;;
9294;SDS011;4686;44.496;11.324;2022-09-09T00:07:30;14.03;;;3.90;;
9294;SDS011;4686;44.496;11.324;2022-09-09T00:10:04;10.73;;;4.00;;
9294;SDS011;4686;44.496;11.324;2022-09-09T00:12:34;8.63;;;3.67;;
9294;SDS011;4686;44.496;11.324;2022-09-09T00:15:05;8.73;;;3.63;;
9294;SDS011;4686;44.496;11.324;2022-09-09T00:17:38;10.20;;;4.20;;
9294;SDS011;4686;44.496;11.324;2022-09-09T00:20:10;10.50;;;4.07;;
9294;SDS011;4686;44.496;11.324;2022-09-09T00:22:39;9.70;;;3.90;;
9294;SDS011;4686;44.496;11.324;2022-09-09T00:25:10;9.37;;;4.03;;
9294;SDS011;4686;44.496;11.324;2022-09-09T00:27:39;10.20;;;4.53;;
9294;SDS011;4686;44.496;11.324;2022-09-09T00:30:13;8.47;;;4.23;;
9294;SDS011;4686;44.496;11.324;2022-09-09T00:32:42;12.40;;;5.00;;
9294;SDS011;4686;44.496;11.324;2022-09-09T00:35:14;7.30;;;5.40;;
9294;SDS011;4686;44.496;11.324;2022-09-09T00:37:43;16.90;;;5.67;;
9294;SDS011;4686;44.496;11.324;2022-09-09T00:40:17;11.27;;;5.70;;
9294;SDS011;4686;44.496;11.324;2022-09-09T00:42:46;16.10;;;5.83;;
9294;SDS011;4686;44.496;11.324;2022-09-09T00:45:19;12.63;;;6.07;;
9294;SDS011;4686;44.496;11.324;2022-09-09T00:47:55;9.13;;;5.33;;
9294;SDS011;4686;44.496;11.324;2022-09-09T00:50:32;8.60;;;4.73;;
9294;SDS011;4686;44.496;11.324;2022-09-09T00:53:02;16.30;;;6.00;;
9294;SDS011;4686;44.496;11.324;2022-09-09T00:55:34;9.40;;;6.10;;
9294;SDS011;4686;44.496;11.324;2022-09-09T00:58:06;10.87;;;6.10;;
9294;SDS011;4686;44.496;11.324;2022-09-09T01:00:35;13.70;;;5.53;;
9294;SDS011;4686;44.496;11.324;2022-09-09T01:03:10;15.53;;;5.87;;
9294;SDS011;4686;44.496;11.324;2022-09-09T01:05:41;7.93;;;5.47;;
9294;SDS011;4686;44.496;11.324;2022-09-09T01:08:14;10.53;;;5.53;;
9294;SDS011;4686;44.496;11.324;2022-09-09T01:10:48;16.37;;;6.10;;
9294;SDS011;4686;44.496;11.324;2022-09-09T01:13:20;7.87;;;5.63;;
9294;SDS011;4686;44.496;11.324;2022-09-09T01:15:49;8.43;;;6.03;;
9294;SDS011;4686;44.496;11.324;2022-09-09T01:18:20;8.90;;;5.97;;
9294;SDS011;4686;44.496;11.324;2022-09-09T01:20:50;7.53;;;6.17;;
9294;SDS011;4686;44.496;11.324;2022-09-09T01:23:23;17.27;;;6.60;;
9294;SDS011;4686;44.496;11.324;2022-09-09T01:26:07;12.10;;;6.60;;
9294;SDS011;4686;44.496;11.324;2022-09-09T01:28:37;10.63;;;6.57;;
9294;SDS011;4686;44.496;11.324;2022-09-09T01:31:06;16.40;;;7.33;;
9294;SDS011;4686;44.496;11.324;2022-09-09T01:33:35;14.47;;;7.47;;
9294;SDS011;4686;44.496;11.324;2022-09-09T01:36:03;9.80;;;7.63;;
9294;SDS011;4686;44.496;11.324;2022-09-09T01:38:33;11.23;;;7.40;;
9294;SDS011;4686;44.496;11.324;2022-09-09T01:41:02;9.90;;;6.90;;
9294;SDS011;4686;44.496;11.324;2022-09-09T01:43:31;8.60;;;6.77;;
9294;SDS011;4686;44.496;11.324;2022-09-09T01:45:59;18.60;;;6.67;;
9294;SDS011;4686;44.496;11.324;2022-09-09T01:48:27;8.80;;;6.60;;
9294;SDS011;4686;44.496;11.324;2022-09-09T01:50:55;14.30;;;7.10;;
9294;SDS011;4686;44.496;11.324;2022-09-09T01:53:22;13.93;;;6.97;;
9294;SDS011;4686;44.496;11.324;2022-09-09T01:55:52;15.90;;;7.23;;
9294;SDS011;4686;44.496;11.324;2022-09-09T01:58:29;11.23;;;6.07;;
9294;SDS011;4686;44.496;11.324;2022-09-09T02:01:02;11.90;;;7.80;;
9294;SDS011;4686;44.496;11.324;2022-09-09T02:03:31;10.70;;;7.40;;
9294;SDS011;4686;44.496;11.324;2022-09-09T02:06:02;10.47;;;6.90;;
9294;SDS011;4686;44.496;11.324;2022-09-09T02:08:33;10.60;;;7.37;;
9294;SDS011;4686;44.496;11.324;2022-09-09T02:11:05;11.27;;;7.10;;
9294;SDS011;4686;44.496;11.324;2022-09-09T02:13:33;11.73;;;7.10;;
9294;SDS011;4686;44.496;11.324;2022-09-09T02:16:04;7.97;;;7.20;;
9294;SDS011;4686;44.496;11.324;2022-09-09T02:18:35;15.20;;;7.10;;
9294;SDS011;4686;44.496;11.324;2022-09-09T02:21:03;14.27;;;7.27;;
9294;SDS011;4686;44.496;11.324;2022-09-09T02:23:32;8.53;;;6.67;;
9294;SDS011;4686;44.496;11.324;2022-09-09T02:26:00;10.17;;;6.90;;
9294;SDS011;4686;44.496;11.324;2022-09-09T02:28:29;8.33;;;6.67;;
9294;SDS011;4686;44.496;11.324;2022-09-09T02:30:58;9.10;;;6.00;;
9294;SDS011;4686;44.496;11.324;2022-09-09T02:33:29;6.77;;;6.10;;
9294;SDS011;4686;44.496;11.324;2022-09-09T02:35:59;8.60;;;6.20;;
9294;SDS011;4686;44.496;11.324;2022-09-09T02:38:29;8.53;;;5.30;;
9294;SDS011;4686;44.496;11.324;2022-09-09T02:41:00;10.20;;;5.70;;
9294;SDS011;4686;44.496;11.324;2022-09-09T02:43:30;6.60;;;5.47;;
9294;SDS011;4686;44.496;11.324;2022-09-09T02:46:01;9.37;;;5.10;;
9294;SDS011;4686;44.496;11.324;2022-09-09T02:48:33;7.53;;;5.60;;
9294;SDS011;4686;44.496;11.324;2022-09-09T02:51:05;7.13;;;5.40;;
9294;SDS011;4686;44.496;11.324;2022-09-09T02:53:36;6.70;;;4.97;;
9294;SDS011;4686;44.496;11.324;2022-09-09T02:56:08;8.10;;;5.23;;
9294;SDS011;4686;44.496;11.324;2022-09-09T02:58:39;8.97;;;5.40;;
9294;SDS011;4686;44.496;11.324;2022-09-09T03:01:06;8.37;;;5.07;;
9294;SDS011;4686;44.496;11.324;2022-09-09T03:03:35;8.80;;;5.33;;
9294;SDS011;4686;44.496;11.324;2022-09-09T03:06:03;9.40;;;5.37;;
9294;SDS011;4686;44.496;11.324;2022-09-09T03:08:31;10.87;;;5.60;;
9294;SDS011;4686;44.496;11.324;2022-09-09T03:10:58;12.33;;;5.13;;
9294;SDS011;4686;44.496;11.324;2022-09-09T03:13:27;11.73;;;5.20;;
9294;SDS011;4686;44.496;11.324;2022-09-09T03:15:54;10.93;;;5.37;;
9294;SDS011;4686;44.496;11.324;2022-09-09T03:18:22;12.90;;;5.13;;
9294;SDS011;4686;44.496;11.324;2022-09-09T03:20:51;13.00;;;4.93;;
9294;SDS011;4686;44.496;11.324;2022-09-09T03:23:19;8.87;;;5.10;;
9294;SDS011;4686;44.496;11.324;2022-09-09T03:25:47;14.70;;;4.97;;
9294;SDS011;4686;44.496;11.324;2022-09-09T03:28:14;15.33;;;5.17;;
9294;SDS011;4686;44.496;11.324;2022-09-09T03:30:42;11.07;;;5.17;;
9294;SDS011;4686;44.496;11.324;2022-09-09T03:33:09;6.63;;;4.57;;
9294;SDS011;4686;44.496;11.324;2022-09-09T03:35:37;5.90;;;5.00;;
9294;SDS011;4686;44.496;11.324;2022-09-09T03:38:08;6.20;;;5.60;;
9294;SDS011;4686;44.496;11.324;2022-09-09T03:40:36;6.33;;;4.70;;
9294;SDS011;4686;44.496;11.324;2022-09-09T03:43:03;10.97;;;5.70;;
9294;SDS011;4686;44.496;11.324;2022-09-09T03:45:31;8.20;;;5.60;;
9294;SDS011;4686;44.496;11.324;2022-09-09T03:47:59;8.20;;;5.90;;
9294;SDS011;4686;44.496;11.324;2022-09-09T03:50:26;9.80;;;5.67;;
9294;SDS011;4686;44.496;11.324;2022-09-09T03:52:55;8.13;;;5.20;;
9294;SDS011;4686;44.496;11.324;2022-09-09T03:55:23;6.93;;;5.23;;
9294;SDS011;4686;44.496;11.324;2022-09-09T03:57:51;9.20;;;5.83;;
9294;SDS011;4686;44.496;11.324;2022-09-09T04:00:19;8.30;;;5.60;;
9294;SDS011;4686;44.496;11.324;2022-09-09T04:02:46;11.30;;;5.57;;
9294;SDS011;4686;44.496;11.324;2022-09-09T04:05:14;7.80;;;5.87;;
9294;SDS011;4686;44.496;11.324;2022-09-09T04:07:42;10.03;;;5.63;;
9294;SDS011;4686;44.496;11.324;2022-09-09T04:10:10;9.67;;;5.70;;
9294;SDS011;4686;44.496;11.324;2022-09-09T04:12:40;7.57;;;5.83;;
9294;SDS011;4686;44.496;11.324;2022-09-09T04:15:08;8.90;;;5.67;;
9294;SDS011;4686;44.496;11.324;2022-09-09T04:17:35;9.47;;;5.33;;
9294;SDS011;4686;44.496;11.324;2022-09-09T04:20:03;7.63;;;5.20;;
9294;SDS011;4686;44.496;11.324;2022-09-09T04:22:30;10.40;;;5.50;;
9294;SDS011;4686;44.496;11.324;2022-09-09T04:24:59;8.87;;;5.13;;
9294;SDS011;4686;44.496;11.324;2022-09-09T04:27:26;5.87;;;5.07;;
9294;SDS011;4686;44.496;11.324;2022-09-09T04:29:55;13.53;;;5.83;;
9294;SDS011;4686;44.496;11.324;2022-09-09T04:32:22;8.97;;;5.50;;
9294;SDS011;4686;44.496;11.324;2022-09-09T04:34:52;8.73;;;5.20;;
9294;SDS011;4686;44.496;11.324;2022-09-09T04:37:19;10.67;;;5.10;;
9294;SDS011;4686;44.496;11.324;2022-09-09T04:39:46;10.17;;;4.97;;
9294;SDS011;4686;44.496;11.324;2022-09-09T04:42:14;13.83;;;5.17;;
9294;SDS011;4686;44.496;11.324;2022-09-09T04:44:44;9.00;;;4.80;;
9294;SDS011;4686;44.496;11.324;2022-09-09T04:47:13;17.43;;;6.30;;
9294;SDS011;4686;44.496;11.324;2022-09-09T04:49:43;6.37;;;4.70;;
9294;SDS011;4686;44.496;11.324;2022-09-09T04:52:10;7.07;;;5.33;;
9294;SDS011;4686;44.496;11.324;2022-09-09T04:54:37;7.87;;;5.10;;
9294;SDS011;4686;44.496;11.324;2022-09-09T04:57:05;8.23;;;4.60;;
9294;SDS011;4686;44.496;11.324;2022-09-09T04:59:33;6.63;;;5.23;;
9294;SDS011;4686;44.496;11.324;2022-09-09T05:02:01;6.57;;;4.70;;
9294;SDS011;4686;44.496;11.324;2022-09-09T05:04:30;12.50;;;4.90;;
9294;SDS011;4686;44.496;11.324;2022-09-09T05:06:58;5.40;;;4.50;;
9294;SDS011;4686;44.496;11.324;2022-09-09T05:09:27;7.77;;;5.10;;
9294;SDS011;4686;44.496;11.324;2022-09-09T05:11:56;6.23;;;4.23;;
9294;SDS011;4686;44.496;11.324;2022-09-09T05:14:23;7.77;;;4.30;;
9294;SDS011;4686;44.496;11.324;2022-09-09T05:16:51;13.97;;;5.23;;
9294;SDS011;4686;44.496;11.324;2022-09-09T05:19:19;9.03;;;5.73;;
9294;SDS011;4686;44.496;11.324;2022-09-09T05:21:48;13.23;;;5.57;;
9294;SDS011;4686;44.496;11.324;2022-09-09T05:24:16;10.00;;;4.87;;
9294;SDS011;4686;44.496;11.324;2022-09-09T05:26:43;15.23;;;6.00;;
9294;SDS011;4686;44.496;11.324;2022-09-09T05:29:12;15.47;;;5.73;;
9294;SDS011;4686;44.496;11.324;2022-09-09T05:31:39;8.33;;;4.90;;
9294;SDS011;4686;44.496;11.324;2022-09-09T05:34:07;13.17;;;5.93;;
9294;SDS011;4686;44.496;11.324;2022-09-09T05:36:34;13.40;;;5.37;;
9294;SDS011;4686;44.496;11.324;2022-09-09T05:39:05;14.20;;;4.90;;
9294;SDS011;4686;44.496;11.324;2022-09-09T05:41:33;9.07;;;5.60;;
9294;SDS011;4686;44.496;11.324;2022-09-09T05:44:01;14.07;;;5.43;;
9294;SDS011;4686;44.496;11.324;2022-09-09T05:46:29;13.77;;;6.03;;
9294;SDS011;4686;44.496;11.324;2022-09-09T05:48:56;13.90;;;5.47;;
9294;SDS011;4686;44.496;11.324;2022-09-09T05:51:24;9.60;;;5.50;;
9294;SDS011;4686;44.496;11.324;2022-09-09T05:53:53;9.90;;;5.27;;
9294;SDS011;4686;44.496;11.324;2022-09-09T05:56:25;6.27;;;5.63;;
9294;SDS011;4686;44.496;11.324;2022-09-09T05:58:53;12.73;;;5.80;;
9294;SDS011;4686;44.496;11.324;2022-09-09T06:01:21;8.70;;;6.20;;
9294;SDS011;4686;44.496;11.324;2022-09-09T06:03:49;11.27;;;5.90;;
9294;SDS011;4686;44.496;11.324;2022-09-09T06:06:18;12.03;;;5.60;;
9294;SDS011;4686;44.496;11.324;2022-09-09T06:08:47;10.43;;;5.43;;
9294;SDS011;4686;44.496;11.324;2022-09-09T06:11:17;7.10;;;5.60;;
9294;SDS011;4686;44.496;11.324;2022-09-09T06:13:46;8.47;;;5.37;;
9294;SDS011;4686;44.496;11.324;2022-09-09T06:16:16;7.80;;;5.60;;
9294;SDS011;4686;44.496;11.324;2022-09-09T06:18:43;8.80;;;6.30;;
9294;SDS011;4686;44.496;11.324;2022-09-09T06:21:14;7.90;;;5.90;;
9294;SDS011;4686;44.496;11.324;2022-09-09T06:23:43;14.40;;;6.20;;
9294;SDS011;4686;44.496;11.324;2022-09-09T06:26:11;12.87;;;6.73;;
9294;SDS011;4686;44.496;11.324;2022-09-09T06:28:39;13.10;;;6.40;;
9294;SDS011;4686;44.496;11.324;2022-09-09T06:31:10;11.43;;;6.53;;
9294;SDS011;4686;44.496;11.324;2022-09-09T06:33:38;10.90;;;5.47;;
9294;SDS011;4686;44.496;11.324;2022-09-09T06:36:07;15.93;;;6.37;;
9294;SDS011;4686;44.496;11.324;2022-09-09T06:38:35;17.87;;;7.87;;
9294;SDS011;4686;44.496;11.324;2022-09-09T06:41:02;14.27;;;7.23;;
9294;SDS011;4686;44.496;11.324;2022-09-09T06:43:31;14.23;;;6.77;;
9294;SDS011;4686;44.496;11.324;2022-09-09T06:45:58;9.03;;;5.83;;
9294;SDS011;4686;44.496;11.324;2022-09-09T06:48:27;10.50;;;7.07;;
9294;SDS011;4686;44.496;11.324;2022-09-09T06:51:01;9.60;;;6.60;;
9294;SDS011;4686;44.496;11.324;2022-09-09T06:53:28;11.90;;;7.40;;
9294;SDS011;4686;44.496;11.324;2022-09-09T06:55:56;16.97;;;7.93;;
9294;SDS011;4686;44.496;11.324;2022-09-09T06:58:25;18.07;;;8.20;;
9294;SDS011;4686;44.496;11.324;2022-09-09T07:00:53;15.13;;;8.17;;
9294;SDS011;4686;44.496;11.324;2022-09-09T07:03:29;11.53;;;7.90;;
9294;SDS011;4686;44.496;11.324;2022-09-09T07:05:56;15.50;;;7.80;;
9294;SDS011;4686;44.496;11.324;2022-09-09T07:08:24;22.43;;;7.90;;
9294;SDS011;4686;44.496;11.324;2022-09-09T07:10:51;10.80;;;7.47;;
9294;SDS011;4686;44.496;11.324;2022-09-09T07:13:23;12.93;;;7.50;;
9294;SDS011;4686;44.496;11.324;2022-09-09T07:15:50;15.47;;;6.10;;
9294;SDS011;4686;44.496;11.324;2022-09-09T07:18:17;11.17;;;5.57;;
9294;SDS011;4686;44.496;11.324;2022-09-09T07:20:53;14.27;;;5.60;;
9294;SDS011;4686;44.496;11.324;2022-09-09T07:23:22;13.03;;;5.20;;
9294;SDS011;4686;44.496;11.324;2022-09-09T07:25:49;13.93;;;5.80;;
9294;SDS011;4686;44.496;11.324;2022-09-09T07:28:17;8.80;;;5.33;;
9294;SDS011;4686;44.496;11.324;2022-09-09T07:30:52;12.40;;;6.50;;
9294;SDS011;4686;44.496;11.324;2022-09-09T07:33:20;12.80;;;5.40;;
9294;SDS011;4686;44.496;11.324;2022-09-09T07:35:49;14.43;;;5.90;;
9294;SDS011;4686;44.496;11.324;2022-09-09T07:38:18;8.40;;;6.07;;
9294;SDS011;4686;44.496;11.324;2022-09-09T07:40:46;15.50;;;6.10;;
9294;SDS011;4686;44.496;11.324;2022-09-09T07:43:14;14.40;;;6.03;;
9294;SDS011;4686;44.496;11.324;2022-09-09T07:45:42;9.10;;;4.50;;
9294;SDS011;4686;44.496;11.324;2022-09-09T07:48:09;12.53;;;4.90;;
9294;SDS011;4686;44.496;11.324;2022-09-09T07:50:37;5.07;;;3.20;;
9294;SDS011;4686;44.496;11.324;2022-09-09T07:53:05;6.53;;;3.47;;
9294;SDS011;4686;44.496;11.324;2022-09-09T07:55:35;6.63;;;3.10;;
9294;SDS011;4686;44.496;11.324;2022-09-09T07:58:02;11.43;;;3.83;;
9294;SDS011;4686;44.496;11.324;2022-09-09T08:00:34;5.00;;;2.70;;
9294;SDS011;4686;44.496;11.324;2022-09-09T08:03:02;6.07;;;2.90;;
9294;SDS011;4686;44.496;11.324;2022-09-09T08:05:31;9.17;;;3.40;;
9294;SDS011;4686;44.496;11.324;2022-09-09T08:07:59;6.23;;;2.90;;
9294;SDS011;4686;44.496;11.324;2022-09-09T08:10:28;4.03;;;2.57;;
9294;SDS011;4686;44.496;11.324;2022-09-09T08:12:57;8.70;;;2.93;;
9294;SDS011;4686;44.496;11.324;2022-09-09T08:15:27;3.43;;;2.50;;
9294;SDS011;4686;44.496;11.324;2022-09-09T08:17:55;5.80;;;3.00;;
9294;SDS011;4686;44.496;11.324;2022-09-09T08:20:23;4.83;;;2.70;;
9294;SDS011;4686;44.496;11.324;2022-09-09T08:22:51;5.47;;;2.50;;
9294;SDS011;4686;44.496;11.324;2022-09-09T08:25:18;11.40;;;3.13;;
9294;SDS011;4686;44.496;11.324;2022-09-09T08:27:46;9.17;;;2.90;;
9294;SDS011;4686;44.496;11.324;2022-09-09T08:30:15;5.80;;;2.80;;
9294;SDS011;4686;44.496;11.324;2022-09-09T08:32:43;8.17;;;3.10;;
9294;SDS011;4686;44.496;11.324;2022-09-09T08:35:10;4.60;;;2.50;;
9294;SDS011;4686;44.496;11.324;2022-09-09T08:37:38;5.23;;;2.30;;
9294;SDS011;4686;44.496;11.324;2022-09-09T08:40:07;3.17;;;2.60;;
9294;SDS011;4686;44.496;11.324;2022-09-09T08:42:38;3.83;;;3.17;;
9294;SDS011;4686;44.496;11.324;2022-09-09T08:45:14;13.27;;;5.03;;
9294;SDS011;4686;44.496;11.324;2022-09-09T08:47:47;16.73;;;5.30;;
9294;SDS011;4686;44.496;11.324;2022-09-09T08:50:21;10.53;;;5.63;;
9294;SDS011;4686;44.496;11.324;2022-09-09T08:52:51;12.73;;;4.97;;
9294;SDS011;4686;44.496;11.324;2022-09-09T08:55:21;10.73;;;5.03;;
9294;SDS011;4686;44.496;11.324;2022-09-09T08:57:51;5.53;;;4.20;;
9294;SDS011;4686;44.496;11.324;2022-09-09T09:00:19;12.13;;;4.07;;
9294;SDS011;4686;44.496;11.324;2022-09-09T09:02:51;7.80;;;4.50;;
9294;SDS011;4686;44.496;11.324;2022-09-09T09:05:23;11.70;;;5.30;;
9294;SDS011;4686;44.496;11.324;2022-09-09T09:07:58;8.80;;;4.63;;
9294;SDS011;4686;44.496;11.324;2022-09-09T09:10:31;7.13;;;4.50;;
9294;SDS011;4686;44.496;11.324;2022-09-09T09:13:04;9.40;;;4.73;;
9294;SDS011;4686;44.496;11.324;2022-09-09T09:15:36;12.50;;;4.60;;
9294;SDS011;4686;44.496;11.324;2022-09-09T09:18:07;11.10;;;4.03;;
9294;SDS011;4686;44.496;11.324;2022-09-09T09:20:40;10.83;;;4.20;;
9294;SDS011;4686;44.496;11.324;2022-09-09T09:23:12;17.17;;;3.97;;
9294;SDS011;4686;44.496;11.324;2022-09-09T09:25:43;8.30;;;4.03;;
9294;SDS011;4686;44.496;11.324;2022-09-09T09:28:12;11.03;;;4.03;;
9294;SDS011;4686;44.496;11.324;2022-09-09T09:30:44;9.97;;;3.90;;
9294;SDS011;4686;44.496;11.324;2022-09-09T09:33:14;9.30;;;3.83;;
9294;SDS011;4686;44.496;11.324;2022-09-09T09:35:44;10.50;;;5.00;;
9294;SDS011;4686;44.496;11.324;2022-09-09T09:38:13;9.17;;;6.10;;
9294;SDS011;4686;44.496;11.324;2022-09-09T09:40:48;13.83;;;5.50;;
9294;SDS011;4686;44.496;11.324;2022-09-09T09:43:18;12.17;;;4.90;;
9294;SDS011;4686;44.496;11.324;2022-09-09T09:45:48;9.23;;;4.50;;
9294;SDS011;4686;44.496;11.324;2022-09-09T09:48:16;8.63;;;4.37;;
9294;SDS011;4686;44.496;11.324;2022-09-09T09:50:47;9.80;;;4.27;;
9294;SDS011;4686;44.496;11.324;2022-09-09T09:53:22;8.83;;;3.53;;
9294;SDS011;4686;44.496;11.324;2022-09-09T09:55:52;10.43;;;4.60;;
9294;SDS011;4686;44.496;11.324;2022-09-09T09:58:20;8.90;;;4.17;;
9294;SDS011;4686;44.496;11.324;2022-09-09T10:00:49;5.60;;;3.63;;
9294;SDS011;4686;44.496;11.324;2022-09-09T10:03:23;5.23;;;3.53;;
9294;SDS011;4686;44.496;11.324;2022-09-09T10:05:53;8.67;;;4.17;;
9294;SDS011;4686;44.496;11.324;2022-09-09T10:08:21;10.00;;;3.80;;
9294;SDS011;4686;44.496;11.324;2022-09-09T10:10:51;9.77;;;3.63;;
9294;SDS011;4686;44.496;11.324;2022-09-09T10:13:25;6.40;;;4.10;;
9294;SDS011;4686;44.496;11.324;2022-09-09T10:15:58;13.53;;;3.73;;
9294;SDS011;4686;44.496;11.324;2022-09-09T10:18:34;7.93;;;3.10;;
9294;SDS011;4686;44.496;11.324;2022-09-09T10:21:06;14.60;;;3.47;;
9294;SDS011;4686;44.496;11.324;2022-09-09T10:23:43;9.90;;;4.00;;
9294;SDS011;4686;44.496;11.324;2022-09-09T10:26:16;8.40;;;4.00;;
9294;SDS011;4686;44.496;11.324;2022-09-09T10:29:00;7.90;;;3.63;;
9294;SDS011;4686;44.496;11.324;2022-09-09T10:31:36;8.13;;;3.37;;
9294;SDS011;4686;44.496;11.324;2022-09-09T10:34:10;6.87;;;3.63;;
9294;SDS011;4686;44.496;11.324;2022-09-09T10:36:40;6.70;;;3.40;;
9294;SDS011;4686;44.496;11.324;2022-09-09T10:39:15;8.53;;;3.83;;
9294;SDS011;4686;44.496;11.324;2022-09-09T10:41:45;12.87;;;4.13;;
9294;SDS011;4686;44.496;11.324;2022-09-09T10:44:28;7.50;;;4.50;;
9294;SDS011;4686;44.496;11.324;2022-09-09T10:47:11;12.53;;;3.53;;
9294;SDS011;4686;44.496;11.324;2022-09-09T10:49:57;5.67;;;3.60;;
9294;SDS011;4686;44.496;11.324;2022-09-09T10:52:30;5.47;;;3.63;;
9294;SDS011;4686;44.496;11.324;2022-09-09T10:55:00;2.83;;;2.63;;
9294;SDS011;4686;44.496;11.324;2022-09-09T10:57:31;5.43;;;3.23;;
9294;SDS011;4686;44.496;11.324;2022-09-09T11:00:02;7.80;;;3.50;;
9294;SDS011;4686;44.496;11.324;2022-09-09T11:02:32;6.60;;;3.60;;
9294;SDS011;4686;44.496;11.324;2022-09-09T11:05:03;6.73;;;2.90;;
9294;SDS011;4686;44.496;11.324;2022-09-09T11:07:33;4.10;;;3.10;;
9294;SDS011;4686;44.496;11.324;2022-09-09T11:10:04;8.17;;;3.20;;
9294;SDS011;4686;44.496;11.324;2022-09-09T11:12:33;7.80;;;3.53;;
9294;SDS011;4686;44.496;11.324;2022-09-09T11:15:04;5.40;;;2.70;;
9294;SDS011;4686;44.496;11.324;2022-09-09T11:17:35;6.70;;;3.17;;
9294;SDS011;4686;44.496;11.324;2022-09-09T11:20:10;4.60;;;2.87;;
9294;SDS011;4686;44.496;11.324;2022-09-09T11:22:39;5.47;;;2.80;;
9294;SDS011;4686;44.496;11.324;2022-09-09T11:25:10;5.07;;;2.80;;
9294;SDS011;4686;44.496;11.324;2022-09-09T11:27:43;3.33;;;2.77;;
9294;SDS011;4686;44.496;11.324;2022-09-09T11:30:20;3.50;;;2.70;;
9294;SDS011;4686;44.496;11.324;2022-09-09T11:33:02;8.23;;;3.27;;
9294;SDS011;4686;44.496;11.324;2022-09-09T11:35:38;4.20;;;3.00;;
9294;SDS011;4686;44.496;11.324;2022-09-09T11:38:11;4.73;;;2.60;;
9294;SDS011;4686;44.496;11.324;2022-09-09T11:40:41;3.90;;;3.10;;
9294;SDS011;4686;44.496;11.324;2022-09-09T11:43:09;7.33;;;2.83;;
9294;SDS011;4686;44.496;11.324;2022-09-09T11:45:38;8.50;;;3.10;;
9294;SDS011;4686;44.496;11.324;2022-09-09T11:48:20;5.00;;;2.97;;
9294;SDS011;4686;44.496;11.324;2022-09-09T11:50:58;5.70;;;2.57;;
9294;SDS011;4686;44.496;11.324;2022-09-09T11:53:25;2.63;;;2.30;;
9294;SDS011;4686;44.496;11.324;2022-09-09T11:56:03;6.43;;;2.73;;
9294;SDS011;4686;44.496;11.324;2022-09-09T11:58:32;3.80;;;2.50;;
9294;SDS011;4686;44.496;11.324;2022-09-09T12:01:01;7.00;;;2.80;;
9294;SDS011;4686;44.496;11.324;2022-09-09T12:03:41;7.53;;;2.70;;
9294;SDS011;4686;44.496;11.324;2022-09-09T12:06:12;4.80;;;2.93;;
9294;SDS011;4686;44.496;11.324;2022-09-09T12:08:41;2.90;;;2.60;;
9294;SDS011;4686;44.496;11.324;2022-09-09T12:11:11;5.20;;;2.90;;
9294;SDS011;4686;44.496;11.324;2022-09-09T12:13:38;8.37;;;2.60;;
9294;SDS011;4686;44.496;11.324;2022-09-09T12:16:26;4.63;;;2.90;;
9294;SDS011;4686;44.496;11.324;2022-09-09T12:19:02;6.63;;;5.03;;
9294;SDS011;4686;44.496;11.324;2022-09-09T12:21:32;5.80;;;2.80;;
9294;SDS011;4686;44.496;11.324;2022-09-09T12:24:04;3.73;;;2.80;;
9294;SDS011;4686;44.496;11.324;2022-09-09T12:26:35;3.23;;;2.93;;
9294;SDS011;4686;44.496;11.324;2022-09-09T12:29:06;6.90;;;3.43;;
9294;SDS011;4686;44.496;11.324;2022-09-09T12:31:39;4.47;;;2.60;;
9294;SDS011;4686;44.496;11.324;2022-09-09T12:34:09;10.50;;;3.10;;
9294;SDS011;4686;44.496;11.324;2022-09-09T12:36:38;4.63;;;3.20;;
9294;SDS011;4686;44.496;11.324;2022-09-09T12:39:10;5.80;;;3.63;;
9294;SDS011;4686;44.496;11.324;2022-09-09T12:41:39;3.83;;;2.40;;
9294;SDS011;4686;44.496;11.324;2022-09-09T12:44:08;5.37;;;2.90;;
9294;SDS011;4686;44.496;11.324;2022-09-09T12:46:36;2.83;;;2.63;;
9294;SDS011;4686;44.496;11.324;2022-09-09T12:49:18;6.03;;;2.83;;
9294;SDS011;4686;44.496;11.324;2022-09-09T12:51:52;7.97;;;4.00;;
9294;SDS011;4686;44.496;11.324;2022-09-09T12:54:22;4.13;;;2.43;;
9294;SDS011;4686;44.496;11.324;2022-09-09T12:56:49;6.83;;;3.10;;
9294;SDS011;4686;44.496;11.324;2022-09-09T12:59:34;4.83;;;2.73;;
9294;SDS011;4686;44.496;11.324;2022-09-09T13:02:02;8.37;;;2.90;;
9294;SDS011;4686;44.496;11.324;2022-09-09T13:04:29;8.30;;;3.27;;
9294;SDS011;4686;44.496;11.324;2022-09-09T13:07:06;6.63;;;3.20;;
9294;SDS011;4686;44.496;11.324;2022-09-09T13:09:36;3.77;;;3.30;;
9294;SDS011;4686;44.496;11.324;2022-09-09T13:12:04;3.50;;;3.00;;
9294;SDS011;4686;44.496;11.324;2022-09-09T13:14:33;7.83;;;2.87;;
9294;SDS011;4686;44.496;11.324;2022-09-09T13:17:03;3.00;;;2.70;;
9294;SDS011;4686;44.496;11.324;2022-09-09T13:19:32;5.43;;;3.00;;
9294;SDS011;4686;44.496;11.324;2022-09-09T13:22:12;7.40;;;3.20;;
9294;SDS011;4686;44.496;11.324;2022-09-09T13:24:40;3.83;;;2.90;;
9294;SDS011;4686;44.496;11.324;2022-09-09T13:27:22;8.30;;;3.30;;
9294;SDS011;4686;44.496;11.324;2022-09-09T13:29:51;3.40;;;2.80;;
9294;SDS011;4686;44.496;11.324;2022-09-09T13:32:21;5.20;;;2.87;;
9294;SDS011;4686;44.496;11.324;2022-09-09T13:34:51;4.03;;;2.83;;
9294;SDS011;4686;44.496;11.324;2022-09-09T13:37:21;5.80;;;3.23;;
9294;SDS011;4686;44.496;11.324;2022-09-09T13:39:51;5.20;;;2.90;;
9294;SDS011;4686;44.496;11.324;2022-09-09T13:42:22;8.37;;;4.33;;
9294;SDS011;4686;44.496;11.324;2022-09-09T13:44:51;4.50;;;3.10;;
9294;SDS011;4686;44.496;11.324;2022-09-09T13:47:20;5.00;;;2.90;;
9294;SDS011;4686;44.496;11.324;2022-09-09T13:49:48;6.83;;;3.23;;
9294;SDS011;4686;44.496;11.324;2022-09-09T13:52:16;5.43;;;2.87;;
9294;SDS011;4686;44.496;11.324;2022-09-09T13:54:48;5.93;;;3.17;;
9294;SDS011;4686;44.496;11.324;2022-09-09T13:57:16;10.00;;;3.10;;
9294;SDS011;4686;44.496;11.324;2022-09-09T13:59:45;8.53;;;3.30;;
9294;SDS011;4686;44.496;11.324;2022-09-09T14:02:13;8.93;;;3.40;;
9294;SDS011;4686;44.496;11.324;2022-09-09T14:04:43;5.83;;;3.00;;
9294;SDS011;4686;44.496;11.324;2022-09-09T14:07:11;5.67;;;3.10;;
9294;SDS011;4686;44.496;11.324;2022-09-09T14:09:39;5.40;;;3.47;;
9294;SDS011;4686;44.496;11.324;2022-09-09T14:12:10;5.83;;;3.23;;
9294;SDS011;4686;44.496;11.324;2022-09-09T14:14:39;8.40;;;3.60;;
9294;SDS011;4686;44.496;11.324;2022-09-09T14:17:07;7.97;;;3.50;;
9294;SDS011;4686;44.496;11.324;2022-09-09T14:19:34;9.67;;;4.03;;
9294;SDS011;4686;44.496;11.324;2022-09-09T14:22:02;6.83;;;3.83;;
9294;SDS011;4686;44.496;11.324;2022-09-09T14:24:29;9.27;;;3.80;;
9294;SDS011;4686;44.496;11.324;2022-09-09T14:26:57;7.70;;;4.17;;
9294;SDS011;4686;44.496;11.324;2022-09-09T14:29:25;5.53;;;3.70;;
9294;SDS011;4686;44.496;11.324;2022-09-09T14:31:53;4.30;;;3.27;;
9294;SDS011;4686;44.496;11.324;2022-09-09T14:34:20;3.60;;;3.30;;
9294;SDS011;4686;44.496;11.324;2022-09-09T14:36:47;10.27;;;3.63;;
9294;SDS011;4686;44.496;11.324;2022-09-09T14:39:16;6.13;;;3.57;;
9294;SDS011;4686;44.496;11.324;2022-09-09T14:41:43;6.43;;;3.23;;
9294;SDS011;4686;44.496;11.324;2022-09-09T14:44:11;9.87;;;3.83;;
9294;SDS011;4686;44.496;11.324;2022-09-09T14:46:40;6.40;;;3.50;;
9294;SDS011;4686;44.496;11.324;2022-09-09T14:49:10;9.47;;;3.80;;
9294;SDS011;4686;44.496;11.324;2022-09-09T14:51:38;13.87;;;4.07;;
9294;SDS011;4686;44.496;11.324;2022-09-09T14:54:06;7.00;;;3.70;;
9294;SDS011;4686;44.496;11.324;2022-09-09T14:56:34;9.50;;;4.20;;
9294;SDS011;4686;44.496;11.324;2022-09-09T14:59:02;10.03;;;3.70;;
9294;SDS011;4686;44.496;11.324;2022-09-09T15:01:29;5.30;;;4.17;;
9294;SDS011;4686;44.496;11.324;2022-09-09T15:04:01;11.90;;;3.67;;
9294;SDS011;4686;44.496;11.324;2022-09-09T15:06:29;6.30;;;3.40;;
9294;SDS011;4686;44.496;11.324;2022-09-09T15:08:58;6.80;;;3.70;;
9294;SDS011;4686;44.496;11.324;2022-09-09T15:11:25;4.70;;;3.73;;
9294;SDS011;4686;44.496;11.324;2022-09-09T15:13:53;8.57;;;3.60;;